sensor_id;sensor_type;location;lat;lon;timestamp;pressure;altitude;pressure_sealevel;temperature;humidity
3668;BME280;24099;47.102;15.440;2022-10-31T00:01:26;97631.66;;;10.24;100.00
3668;BME280;24099;47.102;15.440;2022-10-31T00:03:55;97637.25;;;10.29;100.00
3668;BME280;24099;47.102;15.440;2022-10-31T00:06:23;97632.78;;;10.30;100.00
3668;BME280;24099;47.102;15.440;2022-10-31T00:08:53;97637.88;;;10.31;100.00
3668;BME280;24099;47.102;15.440;2022-10-31T00:11:24;97633.63;;;10.30;100.00
3668;BME280;24099;47.102;15.440;2022-10-31T00:13:52;97636.25;;;10.30;100.00
3668;BME280;24099;47.102;15.440;2022-10-31T00:16:23;97641.69;;;10.21;100.00
3668;BME280;24099;47.102;15.440;2022-10-31T00:18:51;97636.09;;;10.08;100.00
3668;BME280;24099;47.102;15.440;2022-10-31T00:21:20;97638.22;;;10.04;100.00
3668;BME280;24099;47.102;15.440;2022-10-31T00:23:48;97634.28;;;10.08;100.00
3668;BME280;24099;47.102;15.440;2022-10-31T00:26:17;97632.47;;;10.09;100.00
3668;BME280;24099;47.102;15.440;2022-10-31T00:28:45;97636.75;;;10.10;100.00
3668;BME280;24099;47.102;15.440;2022-10-31T00:31:13;97626.41;;;10.08;100.00
3668;BME280;24099;47.102;15.440;2022-10-31T00:33:43;97631.00;;;10.06;100.00
3668;BME280;24099;47.102;15.440;2022-10-31T00:36:12;97629.03;;;10.08;100.00
3668;BME280;24099;47.102;15.440;2022-10-31T00:38:41;97637.25;;;10.05;100.00
3668;BME280;24099;47.102;15.440;2022-10-31T00:41:10;97620.47;;;10.06;100.00
3668;BME280;24099;47.102;15.440;2022-10-31T00:43:40;97625.56;;;10.08;100.00
3668;BME280;24099;47.102;15.440;2022-10-31T00:46:08;97624.59;;;10.00;100.00
3668;BME280;24099;47.102;15.440;2022-10-31T00:48:36;97617.69;;;9.99;100.00
3668;BME280;24099;47.102;15.440;2022-10-31T00:51:06;97621.81;;;10.02;100.00
3668;BME280;24099;47.102;15.440;2022-10-31T00:53:34;97628.53;;;10.05;100.00
3668;BME280;24099;47.102;15.440;2022-10-31T00:56:03;97620.47;;;10.06;100.00
3668;BME280;24099;47.102;15.440;2022-10-31T00:58:31;97622.47;;;9.88;100.00
3668;BME280;24099;47.102;15.440;2022-10-31T01:00:59;97616.41;;;9.87;100.00
3668;BME280;24099;47.102;15.440;2022-10-31T01:03:30;97616.41;;;9.95;100.00
3668;BME280;24099;47.102;15.440;2022-10-31T01:06:03;97612.78;;;9.96;100.00
3668;BME280;24099;47.102;15.440;2022-10-31T01:08:35;97618.88;;;9.81;100.00
3668;BME280;24099;47.102;15.440;2022-10-31T01:11:07;97614.59;;;9.88;100.00
3668;BME280;24099;47.102;15.440;2022-10-31T01:13:35;97619.38;;;9.84;100.00
3668;BME280;24099;47.102;15.440;2022-10-31T01:16:04;97607.06;;;9.77;100.00
3668;BME280;24099;47.102;15.440;2022-10-31T01:18:33;97610.66;;;9.84;100.00
3668;BME280;24099;47.102;15.440;2022-10-31T01:21:03;97607.53;;;9.80;100.00
3668;BME280;24099;47.102;15.440;2022-10-31T01:23:33;97597.34;;;9.85;100.00
3668;BME280;24099;47.102;15.440;2022-10-31T01:26:07;97600.81;;;9.78;100.00
3668;BME280;24099;47.102;15.440;2022-10-31T01:28:36;97601.16;;;9.75;100.00
3668;BME280;24099;47.102;15.440;2022-10-31T01:31:07;97608.72;;;9.78;100.00
3668;BME280;24099;47.102;15.440;2022-10-31T01:33:36;97597.38;;;9.69;100.00
3668;BME280;24099;47.102;15.440;2022-10-31T01:36:16;97600.66;;;9.63;100.00
3668;BME280;24099;47.102;15.440;2022-10-31T01:38:46;97594.25;;;9.65;100.00
3668;BME280;24099;47.102;15.440;2022-10-31T01:41:18;97592.59;;;9.64;100.00
3668;BME280;24099;47.102;15.440;2022-10-31T01:43:52;97599.34;;;9.67;100.00
3668;BME280;24099;47.102;15.440;2022-10-31T01:46:23;97597.53;;;9.67;100.00
3668;BME280;24099;47.102;15.440;2022-10-31T01:48:53;97589.31;;;9.71;100.00
3668;BME280;24099;47.102;15.440;2022-10-31T01:51:27;97593.44;;;9.65;100.00
3668;BME280;24099;47.102;15.440;2022-10-31T01:54:01;97589.47;;;9.61;100.00
3668;BME280;24099;47.102;15.440;2022-10-31T01:56:30;97588.81;;;9.67;100.00
3668;BME280;24099;47.102;15.440;2022-10-31T01:59:00;97583.41;;;9.68;100.00
3668;BME280;24099;47.102;15.440;2022-10-31T02:01:30;97589.00;;;9.65;100.00
3668;BME280;24099;47.102;15.440;2022-10-31T02:03:58;97589.97;;;9.64;100.00
3668;BME280;24099;47.102;15.440;2022-10-31T02:06:33;97588.81;;;9.67;100.00
3668;BME280;24099;47.102;15.440;2022-10-31T02:09:06;97577.84;;;9.55;100.00
3668;BME280;24099;47.102;15.440;2022-10-31T02:11:35;97576.19;;;9.46;100.00
3668;BME280;24099;47.102;15.440;2022-10-31T02:14:04;97569.28;;;9.45;100.00
3668;BME280;24099;47.102;15.440;2022-10-31T02:16:32;97570.78;;;9.56;100.00
3668;BME280;24099;47.102;15.440;2022-10-31T02:19:00;97572.56;;;9.63;100.00
3668;BME280;24099;47.102;15.440;2022-10-31T02:21:36;97575.34;;;9.62;100.00
3668;BME280;24099;47.102;15.440;2022-10-31T02:24:44;97570.28;;;9.52;100.00
3668;BME280;24099;47.102;15.440;2022-10-31T02:27:21;97567.50;;;9.54;100.00
3668;BME280;24099;47.102;15.440;2022-10-31T02:30:04;97564.34;;;9.66;100.00
3668;BME280;24099;47.102;15.440;2022-10-31T02:35:50;97574.88;;;9.66;100.00
3668;BME280;24099;47.102;15.440;2022-10-31T02:38:34;97565.38;;;9.57;100.00
3668;BME280;24099;47.102;15.440;2022-10-31T02:41:15;97570.63;;;9.57;100.00
3668;BME280;24099;47.102;15.440;2022-10-31T02:44:03;97577.00;;;9.63;100.00
3668;BME280;24099;47.102;15.440;2022-10-31T02:46:37;97570.91;;;9.62;100.00
3668;BME280;24099;47.102;15.440;2022-10-31T02:49:15;97567.31;;;9.47;100.00
3668;BME280;24099;47.102;15.440;2022-10-31T02:51:45;97569.94;;;9.47;100.00
3668;BME280;24099;47.102;15.440;2022-10-31T02:54:21;97567.50;;;9.54;100.00
3668;BME280;24099;47.102;15.440;2022-10-31T02:56:54;97569.47;;;9.52;100.00
3668;BME280;24099;47.102;15.440;2022-10-31T02:59:27;97569.94;;;9.47;100.00
3668;BME280;24099;47.102;15.440;2022-10-31T03:05:14;97575.53;;;9.44;100.00
3668;BME280;24099;47.102;15.440;2022-10-31T03:07:56;97571.28;;;9.51;100.00
3668;BME280;24099;47.102;15.440;2022-10-31T03:10:35;97577.66;;;9.41;100.00
3668;BME280;24099;47.102;15.440;2022-10-31T03:13:12;97570.28;;;9.44;100.00
3668;BME280;24099;47.102;15.440;2022-10-31T03:15:44;97573.09;;;9.35;100.00
3668;BME280;24099;47.102;15.440;2022-10-31T03:18:17;97578.66;;;9.31;100.00
3668;BME280;24099;47.102;15.440;2022-10-31T03:20:54;97575.38;;;9.38;100.00
3668;BME280;24099;47.102;15.440;2022-10-31T03:23:25;97574.06;;;9.33;100.00
3668;BME280;24099;47.102;15.440;2022-10-31T03:25:54;97580.13;;;9.42;100.00
3668;BME280;24099;47.102;15.440;2022-10-31T03:28:29;97566.00;;;9.43;100.00
3668;BME280;24099;47.102;15.440;2022-10-31T03:31:00;97577.84;;;9.39;100.00
3668;BME280;24099;47.102;15.440;2022-10-31T03:33:33;97575.56;;;9.36;100.00
3668;BME280;24099;47.102;15.440;2022-10-31T03:36:05;97573.06;;;9.26;100.00
3668;BME280;24099;47.102;15.440;2022-10-31T03:38:36;97576.34;;;9.45;100.00
3668;BME280;24099;47.102;15.440;2022-10-31T03:41:06;97580.63;;;9.54;100.00
3668;BME280;24099;47.102;15.440;2022-10-31T03:43:42;97579.31;;;9.33;100.00
3668;BME280;24099;47.102;15.440;2022-10-31T03:46:13;97588.66;;;9.28;100.00
3668;BME280;24099;47.102;15.440;2022-10-31T03:48:43;97576.34;;;9.12;100.00
3668;BME280;24099;47.102;15.440;2022-10-31T03:51:16;97572.91;;;9.20;100.00
3668;BME280;24099;47.102;15.440;2022-10-31T03:53:51;97580.47;;;9.15;100.00
3668;BME280;24099;47.102;15.440;2022-10-31T03:56:27;97580.31;;;9.16;100.00
3668;BME280;24099;47.102;15.440;2022-10-31T03:59:00;97588.34;;;9.15;100.00
3668;BME280;24099;47.102;15.440;2022-10-31T04:01:32;97577.50;;;9.10;100.00
3668;BME280;24099;47.102;15.440;2022-10-31T04:04:03;97582.75;;;9.10;100.00
3668;BME280;24099;47.102;15.440;2022-10-31T04:06:36;97580.28;;;9.08;100.00
3668;BME280;24099;47.102;15.440;2022-10-31T04:09:06;97578.16;;;9.12;100.00
3668;BME280;24099;47.102;15.440;2022-10-31T04:11:38;97580.25;;;9.00;100.00
3668;BME280;24099;47.102;15.440;2022-10-31T04:14:33;97584.72;;;9.08;100.00
3668;BME280;24099;47.102;15.440;2022-10-31T04:17:05;97584.72;;;9.08;100.00
3668;BME280;24099;47.102;15.440;2022-10-31T04:19:38;97585.34;;;9.02;100.00
3668;BME280;24099;47.102;15.440;2022-10-31T04:22:08;97587.97;;;9.02;100.00
3668;BME280;24099;47.102;15.440;2022-10-31T04:24:36;97590.59;;;9.02;100.00
3668;BME280;24099;47.102;15.440;2022-10-31T04:27:08;97594.88;;;9.03;100.00
3668;BME280;24099;47.102;15.440;2022-10-31T04:29:36;97590.91;;;8.90;100.00
3668;BME280;24099;47.102;15.440;2022-10-31T04:32:04;97584.69;;;8.91;100.00
3668;BME280;24099;47.102;15.440;2022-10-31T04:34:32;97591.59;;;8.92;100.00
3668;BME280;24099;47.102;15.440;2022-10-31T04:36:59;97592.56;;;8.91;100.00
3668;BME280;24099;47.102;15.440;2022-10-31T04:39:29;97581.75;;;8.94;100.00
3668;BME280;24099;47.102;15.440;2022-10-31T04:42:16;97583.38;;;8.95;100.00
3668;BME280;24099;47.102;15.440;2022-10-31T04:44:44;97585.94;;;8.71;100.00
3668;BME280;24099;47.102;15.440;2022-10-31T04:47:12;97587.78;;;8.87;100.00
3668;BME280;24099;47.102;15.440;2022-10-31T04:49:40;97584.81;;;8.82;100.00
3668;BME280;24099;47.102;15.440;2022-10-31T04:52:10;97582.19;;;8.74;100.00
3668;BME280;24099;47.102;15.440;2022-10-31T04:54:39;97575.97;;;8.75;100.00
3668;BME280;24099;47.102;15.440;2022-10-31T04:57:30;97581.06;;;8.84;100.00
3668;BME280;24099;47.102;15.440;2022-10-31T05:00:01;97591.72;;;8.83;100.00
3668;BME280;24099;47.102;15.440;2022-10-31T05:02:30;97585.03;;;8.96;100.00
3668;BME280;24099;47.102;15.440;2022-10-31T05:04:59;97577.75;;;8.82;100.00
3668;BME280;24099;47.102;15.440;2022-10-31T05:07:27;97587.28;;;8.75;100.00
3668;BME280;24099;47.102;15.440;2022-10-31T05:09:56;97587.94;;;8.85;100.00
3668;BME280;24099;47.102;15.440;2022-10-31T05:12:24;97587.31;;;8.99;100.00
3668;BME280;24099;47.102;15.440;2022-10-31T05:15:19;97591.56;;;8.84;100.00
3668;BME280;24099;47.102;15.440;2022-10-31T05:18:10;97594.66;;;8.72;100.00
3668;BME280;24099;47.102;15.440;2022-10-31T05:21:00;97585.94;;;8.71;100.00
3668;BME280;24099;47.102;15.440;2022-10-31T05:23:34;97595.47;;;8.72;100.00
3668;BME280;24099;47.102;15.440;2022-10-31T05:26:05;97594.84;;;8.78;100.00
3668;BME280;24099;47.102;15.440;2022-10-31T05:28:34;97598.28;;;8.79;100.00
3668;BME280;24099;47.102;15.440;2022-10-31T05:31:07;97596.44;;;8.71;100.00
3668;BME280;24099;47.102;15.440;2022-10-31T05:33:35;97601.69;;;8.79;100.00
3668;BME280;24099;47.102;15.440;2022-10-31T05:36:23;97595.97;;;8.84;100.00
3668;BME280;24099;47.102;15.440;2022-10-31T05:38:59;97594.19;;;8.76;100.00
3668;BME280;24099;47.102;15.440;2022-10-31T05:41:36;97597.59;;;8.69;100.00
3668;BME280;24099;47.102;15.440;2022-10-31T05:44:08;97600.56;;;8.74;100.00
3668;BME280;24099;47.102;15.440;2022-10-31T05:46:55;97600.09;;;8.78;100.00
3668;BME280;24099;47.102;15.440;2022-10-31T05:49:43;97594.19;;;8.76;100.00
3668;BME280;24099;47.102;15.440;2022-10-31T05:52:31;97603.19;;;8.74;100.00
3668;BME280;24099;47.102;15.440;2022-10-31T05:55:08;97605.16;;;8.80;100.00
3668;BME280;24099;47.102;15.440;2022-10-31T05:57:40;97598.75;;;8.82;100.00
3668;BME280;24099;47.102;15.440;2022-10-31T06:00:09;97599.78;;;8.89;100.00
3668;BME280;24099;47.102;15.440;2022-10-31T06:02:47;97600.56;;;8.82;100.00
3668;BME280;24099;47.102;15.440;2022-10-31T06:05:28;97612.25;;;8.87;100.00
3668;BME280;24099;47.102;15.440;2022-10-31T06:07:56;97613.22;;;8.78;100.00
3668;BME280;24099;47.102;15.440;2022-10-31T06:10:25;97612.28;;;8.95;100.00
3668;BME280;24099;47.102;15.440;2022-10-31T06:12:56;97610.28;;;8.89;100.00
3668;BME280;24099;47.102;15.440;2022-10-31T06:15:57;97615.41;;;8.99;100.00
3668;BME280;24099;47.102;15.440;2022-10-31T06:18:32;97612.25;;;9.04;100.00
3668;BME280;24099;47.102;15.440;2022-10-31T06:21:01;97615.22;;;9.01;100.00
3668;BME280;24099;47.102;15.440;2022-10-31T06:23:29;97619.31;;;9.03;100.00
3668;BME280;24099;47.102;15.440;2022-10-31T06:26:18;97616.38;;;9.06;100.00
3668;BME280;24099;47.102;15.440;2022-10-31T06:28:49;97616.22;;;9.08;100.00
3668;BME280;24099;47.102;15.440;2022-10-31T06:31:30;97611.94;;;9.07;100.00
3668;BME280;24099;47.102;15.440;2022-10-31T06:33:58;97618.03;;;9.07;100.00
3668;BME280;24099;47.102;15.440;2022-10-31T06:36:28;97617.69;;;9.02;100.00
3668;BME280;24099;47.102;15.440;2022-10-31T06:38:55;97622.00;;;9.27;100.00
3668;BME280;24099;47.102;15.440;2022-10-31T06:41:25;97622.78;;;9.20;100.00
3668;BME280;24099;47.102;15.440;2022-10-31T06:43:55;97622.97;;;9.18;100.00
3668;BME280;24099;47.102;15.440;2022-10-31T06:46:52;97632.47;;;9.19;100.00
3668;BME280;24099;47.102;15.440;2022-10-31T06:49:43;97629.38;;;9.24;100.00
3668;BME280;24099;47.102;15.440;2022-10-31T06:52:16;97632.66;;;9.26;100.00
3668;BME280;24099;47.102;15.440;2022-10-31T06:54:44;97634.97;;;9.29;100.00
3668;BME280;24099;47.102;15.440;2022-10-31T06:57:14;97641.53;;;9.41;100.00
3668;BME280;24099;47.102;15.440;2022-10-31T06:59:44;97634.81;;;9.30;100.00
3668;BME280;24099;47.102;15.440;2022-10-31T07:02:16;97646.31;;;9.38;100.00
3668;BME280;24099;47.102;15.440;2022-10-31T07:04:44;97640.09;;;9.39;100.00
3668;BME280;24099;47.102;15.440;2022-10-31T07:07:18;97639.72;;;9.42;100.00
3668;BME280;24099;47.102;15.440;2022-10-31T07:09:47;97642.38;;;9.50;100.00
3668;BME280;24099;47.102;15.440;2022-10-31T07:12:17;97646.00;;;9.57;100.00
3668;BME280;24099;47.102;15.440;2022-10-31T07:14:57;97646.81;;;9.57;100.00
3668;BME280;24099;47.102;15.440;2022-10-31T07:17:26;97649.78;;;9.54;100.00
3668;BME280;24099;47.102;15.440;2022-10-31T07:19:56;97656.50;;;9.57;100.00
3668;BME280;24099;47.102;15.440;2022-10-31T07:22:24;97656.16;;;9.60;100.00
3668;BME280;24099;47.102;15.440;2022-10-31T07:24:52;97657.34;;;9.74;100.00
3668;BME280;24099;47.102;15.440;2022-10-31T07:27:48;97668.19;;;9.71;100.00
3668;BME280;24099;47.102;15.440;2022-10-31T07:30:19;97659.31;;;9.72;100.00
3668;BME280;24099;47.102;15.440;2022-10-31T07:32:51;97665.03;;;9.91;100.00
3668;BME280;24099;47.102;15.440;2022-10-31T07:35:22;97661.56;;;10.31;100.00
3668;BME280;24099;47.102;15.440;2022-10-31T07:37:56;97660.25;;;10.11;100.00
3668;BME280;24099;47.102;15.440;2022-10-31T07:40:25;97669.13;;;10.10;100.00
3668;BME280;24099;47.102;15.440;2022-10-31T07:42:53;97670.78;;;10.11;100.00
3668;BME280;24099;47.102;15.440;2022-10-31T07:45:54;97671.59;;;10.20;100.00
3668;BME280;24099;47.102;15.440;2022-10-31T07:48:41;97669.78;;;10.28;100.00
3668;BME280;24099;47.102;15.440;2022-10-31T07:51:28;97670.59;;;10.37;100.00
3668;BME280;24099;47.102;15.440;2022-10-31T07:54:15;97672.06;;;10.48;100.00
3668;BME280;24099;47.102;15.440;2022-10-31T07:56:43;97661.53;;;10.48;100.00
3668;BME280;24099;47.102;15.440;2022-10-31T07:59:13;97667.59;;;10.56;100.00
3668;BME280;24099;47.102;15.440;2022-10-31T08:01:43;97668.03;;;10.68;100.00
3668;BME280;24099;47.102;15.440;2022-10-31T08:04:31;97666.16;;;10.85;100.00
3668;BME280;24099;47.102;15.440;2022-10-31T08:07:19;97676.09;;;11.05;100.00
3668;BME280;24099;47.102;15.440;2022-10-31T08:09:55;97668.16;;;11.14;100.00
3668;BME280;24099;47.102;15.440;2022-10-31T08:12:27;97664.84;;;11.43;100.00
3668;BME280;24099;47.102;15.440;2022-10-31T08:14:56;97666.16;;;11.47;100.00
3668;BME280;24099;47.102;15.440;2022-10-31T08:17:25;97665.75;;;11.81;100.00
3668;BME280;24099;47.102;15.440;2022-10-31T08:19:58;97674.53;;;11.96;100.00
3668;BME280;24099;47.102;15.440;2022-10-31T08:22:31;97669.41;;;12.17;100.00
3668;BME280;24099;47.102;15.440;2022-10-31T08:25:01;97664.16;;;12.32;100.00
3668;BME280;24099;47.102;15.440;2022-10-31T08:27:32;97671.53;;;12.51;100.00
3668;BME280;24099;47.102;15.440;2022-10-31T08:30:01;97662.97;;;12.79;100.00
3668;BME280;24099;47.102;15.440;2022-10-31T08:32:31;97669.31;;;12.99;100.00
3668;BME280;24099;47.102;15.440;2022-10-31T08:35:18;97664.28;;;13.04;100.00
3668;BME280;24099;47.102;15.440;2022-10-31T08:38:05;97666.66;;;13.50;100.00
3668;BME280;24099;47.102;15.440;2022-10-31T08:40:35;97664.31;;;13.83;100.00
3668;BME280;24099;47.102;15.440;2022-10-31T08:43:04;97654.16;;;14.07;100.00
3668;BME280;24099;47.102;15.440;2022-10-31T08:45:34;97652.91;;;14.31;100.00
3668;BME280;24099;47.102;15.440;2022-10-31T08:48:06;97643.97;;;14.32;100.00
3668;BME280;24099;47.102;15.440;2022-10-31T08:50:37;97645.75;;;14.94;100.00
3668;BME280;24099;47.102;15.440;2022-10-31T08:53:06;97641.19;;;14.75;100.00
3668;BME280;24099;47.102;15.440;2022-10-31T08:55:40;97636.66;;;15.16;100.00
3668;BME280;24099;47.102;15.440;2022-10-31T08:58:24;97638.75;;;15.34;100.00
3668;BME280;24099;47.102;15.440;2022-10-31T09:00:58;97644.88;;;15.35;100.00
3668;BME280;24099;47.102;15.440;2022-10-31T09:03:29;97637.81;;;15.75;100.00
3668;BME280;24099;47.102;15.440;2022-10-31T09:06:01;97642.72;;;15.58;100.00
3668;BME280;24099;47.102;15.440;2022-10-31T09:08:30;97633.88;;;16.43;100.00
3668;BME280;24099;47.102;15.440;2022-10-31T09:10:58;97622.81;;;16.60;100.00
3668;BME280;24099;47.102;15.440;2022-10-31T09:13:45;97624.69;;;16.46;100.00
3668;BME280;24099;47.102;15.440;2022-10-31T09:16:32;97625.31;;;16.41;100.00
3668;BME280;24099;47.102;15.440;2022-10-31T09:19:02;97624.28;;;16.49;100.00
3668;BME280;24099;47.102;15.440;2022-10-31T09:21:30;97616.94;;;16.44;100.00
3668;BME280;24099;47.102;15.440;2022-10-31T09:23:58;97627.72;;;16.76;100.00
3668;BME280;24099;47.102;15.440;2022-10-31T09:26:26;97619.50;;;16.84;100.00
3668;BME280;24099;47.102;15.440;2022-10-31T09:29:07;97614.41;;;17.20;100.00
3668;BME280;24099;47.102;15.440;2022-10-31T09:31:38;97610.13;;;17.19;100.00
3668;BME280;24099;47.102;15.440;2022-10-31T09:34:15;97617.81;;;16.96;100.00
3668;BME280;24099;47.102;15.440;2022-10-31T09:36:47;97622.47;;;17.07;100.00
3668;BME280;24099;47.102;15.440;2022-10-31T09:39:20;97611.50;;;17.35;100.00
3668;BME280;24099;47.102;15.440;2022-10-31T09:42:04;97611.91;;;17.32;100.00
3668;BME280;24099;47.102;15.440;2022-10-31T09:44:43;97614.56;;;17.64;100.00
3668;BME280;24099;47.102;15.440;2022-10-31T09:47:33;97613.59;;;17.89;100.00
3668;BME280;24099;47.102;15.440;2022-10-31T09:50:32;97607.66;;;18.55;100.00
3668;BME280;24099;47.102;15.440;2022-10-31T09:53:25;97602.13;;;18.32;100.00
3668;BME280;24099;47.102;15.440;2022-10-31T09:55:55;97600.47;;;18.56;100.00
3668;BME280;24099;47.102;15.440;2022-10-31T09:58:26;97594.44;;;18.42;100.00
3668;BME280;24099;47.102;15.440;2022-10-31T10:00:58;97599.75;;;18.67;100.00
3668;BME280;24099;47.102;15.440;2022-10-31T10:03:34;97603.28;;;18.98;100.00
3668;BME280;24099;47.102;15.440;2022-10-31T10:06:28;97600.16;;;19.01;100.00
3668;BME280;24099;47.102;15.440;2022-10-31T10:09:17;97592.09;;;18.89;100.00
3668;BME280;24099;47.102;15.440;2022-10-31T10:12:15;97599.72;;;19.34;100.00
3668;BME280;24099;47.102;15.440;2022-10-31T10:14:59;97604.06;;;19.46;100.00
3668;BME280;24099;47.102;15.440;2022-10-31T10:17:37;97595.00;;;19.47;100.00
3668;BME280;24099;47.102;15.440;2022-10-31T10:20:29;97587.91;;;19.71;100.00
3668;BME280;24099;47.102;15.440;2022-10-31T10:23:13;97586.03;;;19.83;100.00
3668;BME280;24099;47.102;15.440;2022-10-31T10:25:51;97592.78;;;19.74;100.00
3668;BME280;24099;47.102;15.440;2022-10-31T10:28:26;97587.22;;;19.76;100.00
3668;BME280;24099;47.102;15.440;2022-10-31T10:30:59;97591.66;;;20.17;100.00
3668;BME280;24099;47.102;15.440;2022-10-31T10:33:32;97582.69;;;20.23;100.00
3668;BME280;24099;47.102;15.440;2022-10-31T10:36:03;97579.66;;;19.73;100.00
3668;BME280;24099;47.102;15.440;2022-10-31T10:38:37;97576.44;;;20.41;100.00
3668;BME280;24099;47.102;15.440;2022-10-31T10:41:14;97571.16;;;21.09;100.00
3668;BME280;24099;47.102;15.440;2022-10-31T10:43:43;97579.31;;;20.04;100.00
3668;BME280;24099;47.102;15.440;2022-10-31T10:46:20;97564.78;;;20.98;100.00
3668;BME280;24099;47.102;15.440;2022-10-31T10:49:33;97570.09;;;21.10;100.00
3668;BME280;24099;47.102;15.440;2022-10-31T10:52:10;97561.16;;;20.64;100.00
3668;BME280;24099;47.102;15.440;2022-10-31T10:54:58;97569.06;;;21.11;100.00
3668;BME280;24099;47.102;15.440;2022-10-31T10:57:51;97556.19;;;20.96;100.00
3668;BME280;24099;47.102;15.440;2022-10-31T11:00:25;97548.78;;;21.15;100.00
3668;BME280;24099;47.102;15.440;2022-10-31T11:02:54;97551.16;;;21.57;100.00
3668;BME280;24099;47.102;15.440;2022-10-31T11:05:28;97545.81;;;21.57;100.00
3668;BME280;24099;47.102;15.440;2022-10-31T11:07:58;97550.88;;;21.42;100.00
3668;BME280;24099;47.102;15.440;2022-10-31T11:10:27;97547.63;;;21.40;100.00
3668;BME280;24099;47.102;15.440;2022-10-31T11:13:04;97541.06;;;21.19;100.00
3668;BME280;24099;47.102;15.440;2022-10-31T11:15:36;97537.97;;;21.39;100.00
3668;BME280;24099;47.102;15.440;2022-10-31T11:18:04;97533.84;;;21.31;100.00
3668;BME280;24099;47.102;15.440;2022-10-31T11:20:35;97533.38;;;21.51;100.00
3668;BME280;24099;47.102;15.440;2022-10-31T11:23:15;97535.22;;;21.67;100.00
3668;BME280;24099;47.102;15.440;2022-10-31T11:25:54;97537.25;;;21.43;100.00
3668;BME280;24099;47.102;15.440;2022-10-31T11:28:22;97535.47;;;21.32;100.00
3668;BME280;24099;47.102;15.440;2022-10-31T11:30:53;97531.97;;;21.48;100.00
3668;BME280;24099;47.102;15.440;2022-10-31T11:33:27;97532.78;;;21.32;100.00
3668;BME280;24099;47.102;15.440;2022-10-31T11:35:57;97527.34;;;21.60;100.00
3668;BME280;24099;47.102;15.440;2022-10-31T11:38:34;97522.88;;;21.49;100.00
3668;BME280;24099;47.102;15.440;2022-10-31T11:41:13;97519.25;;;21.55;100.00
3668;BME280;24099;47.102;15.440;2022-10-31T11:43:48;97512.75;;;21.35;100.00
3668;BME280;24099;47.102;15.440;2022-10-31T11:46:20;97511.13;;;21.67;100.00
3668;BME280;24099;47.102;15.440;2022-10-31T11:48:50;97512.09;;;21.78;100.00
3668;BME280;24099;47.102;15.440;2022-10-31T11:51:22;97511.22;;;21.72;100.00
3668;BME280;24099;47.102;15.440;2022-10-31T11:53:52;97505.53;;;21.35;100.00
3668;BME280;24099;47.102;15.440;2022-10-31T11:56:23;97499.75;;;21.60;100.00
3668;BME280;24099;47.102;15.440;2022-10-31T11:58:59;97501.94;;;21.63;100.00
3668;BME280;24099;47.102;15.440;2022-10-31T12:01:31;97507.28;;;21.63;100.00
3668;BME280;24099;47.102;15.440;2022-10-31T12:04:06;97503.91;;;21.67;100.00
3668;BME280;24099;47.102;15.440;2022-10-31T12:06:36;97500.94;;;21.86;100.00
3668;BME280;24099;47.102;15.440;2022-10-31T12:09:18;97502.00;;;22.02;100.00
3668;BME280;24099;47.102;15.440;2022-10-31T12:12:05;97494.94;;;21.95;100.00
3668;BME280;24099;47.102;15.440;2022-10-31T12:14:47;97494.56;;;22.25;100.00
3668;BME280;24099;47.102;15.440;2022-10-31T12:17:18;97499.56;;;21.83;100.00
3668;BME280;24099;47.102;15.440;2022-10-31T12:20:03;97492.06;;;22.19;100.00
3668;BME280;24099;47.102;15.440;2022-10-31T12:22:41;97498.22;;;22.19;100.00
3668;BME280;24099;47.102;15.440;2022-10-31T12:25:24;97488.81;;;22.39;100.00
3668;BME280;24099;47.102;15.440;2022-10-31T12:28:28;97497.81;;;22.27;100.00
3668;BME280;24099;47.102;15.440;2022-10-31T12:31:08;97484.38;;;22.06;100.00
3668;BME280;24099;47.102;15.440;2022-10-31T12:33:49;97483.25;;;21.85;100.00
3668;BME280;24099;47.102;15.440;2022-10-31T12:36:33;97482.66;;;22.16;100.00
3668;BME280;24099;47.102;15.440;2022-10-31T12:39:20;97482.84;;;22.10;100.00
3668;BME280;24099;47.102;15.440;2022-10-31T12:41:53;97481.72;;;21.89;100.00
3668;BME280;24099;47.102;15.440;2022-10-31T12:45:00;97482.03;;;21.92;100.00
3668;BME280;24099;47.102;15.440;2022-10-31T12:47:43;97474.59;;;21.78;100.00
3668;BME280;24099;47.102;15.440;2022-10-31T12:50:27;97485.72;;;22.68;100.00
3668;BME280;24099;47.102;15.440;2022-10-31T12:53:03;97482.03;;;22.75;100.00
3668;BME280;24099;47.102;15.440;2022-10-31T12:55:38;97474.31;;;21.96;100.00
3668;BME280;24099;47.102;15.440;2022-10-31T12:58:11;97462.94;;;22.27;100.00
3668;BME280;24099;47.102;15.440;2022-10-31T13:00:46;97479.22;;;21.65;100.00
3668;BME280;24099;47.102;15.440;2022-10-31T13:03:23;97474.28;;;21.57;100.00
3668;BME280;24099;47.102;15.440;2022-10-31T13:05:54;97472.94;;;21.93;100.00
3668;BME280;24099;47.102;15.440;2022-10-31T13:08:28;97469.25;;;22.16;100.00
3668;BME280;24099;47.102;15.440;2022-10-31T13:11:05;97463.09;;;22.16;100.00
3668;BME280;24099;47.102;15.440;2022-10-31T13:13:39;97464.78;;;21.50;100.00
3668;BME280;24099;47.102;15.440;2022-10-31T13:16:13;97470.13;;;21.50;100.00
3668;BME280;24099;47.102;15.440;2022-10-31T13:18:46;97470.47;;;21.53;100.00
3668;BME280;24099;47.102;15.440;2022-10-31T13:21:21;97463.22;;;21.71;100.00
3668;BME280;24099;47.102;15.440;2022-10-31T13:23:51;97466.38;;;21.67;100.00
3668;BME280;24099;47.102;15.440;2022-10-31T13:26:32;97459.75;;;21.37;100.00
3668;BME280;24099;47.102;15.440;2022-10-31T13:29:05;97451.53;;;21.43;100.00
3668;BME280;24099;47.102;15.440;2022-10-31T13:31:41;97452.59;;;21.25;100.00
3668;BME280;24099;47.102;15.440;2022-10-31T13:34:18;97459.50;;;21.38;100.00
3668;BME280;24099;47.102;15.440;2022-10-31T13:36:54;97453.94;;;21.11;100.00
3668;BME280;24099;47.102;15.440;2022-10-31T13:39:32;97451.44;;;21.21;100.00
3668;BME280;24099;47.102;15.440;2022-10-31T13:42:05;97450.63;;;21.21;100.00